Airport View

Enter AWOS ICAO identifier for current METAR.

ex. KFNL

KGED 261054Z AUTO 31004KT 10SM CLR 22/18 A3005 RMK AO2 SLP176 T02220183

26 Jun 2019 11:48

Frequency: 118.375

Phone: 302-856-2927

Other Area AWOS: KSBY - KOXB - KDOV - KWWD

TAF KSBY 260540Z 2606/2706 VRB05KT P6SM SCT250 FM262300 25004KT P6SM SKC